Time;durP1;ratioP1;P1;durP2;ratioP2;P2;SDS_P1;SDS_P2;PMS_P1;PMS_P2;Temp;Humidity;BMP_temperature;BMP_pressure;BME280_temperature;BME280_humidity;BME280_pressure;Samples;Min_cycle;Max_cycle;Signal;HPM_P1;HPM_P2
2022/06/15 00:01:13;;;;;;;7.95;3.80;;;;;;;14.24;66.33;101901.06;5071876;28;20028;-67
2022/06/15 00:03:40;;;;;;;6.68;4.28;;;;;;;14.19;66.45;101895.38;5080345;28;20073;-68
2022/06/15 00:06:08;;;;;;;6.82;3.72;;;;;;;14.13;66.87;101893.25;5086732;28;20016;-67
2022/06/15 00:08:34;;;;;;;6.65;4.07;;;;;;;14.11;67.32;101889.09;5077157;28;20032;-69
2022/06/15 00:11:13;;;;;;;6.97;4.43;;;;;;;14.09;67.14;101891.84;5084720;28;20028;-67
2022/06/15 00:13:38;;;;;;;;;;;;;;;14.33;64.87;101895.09;5084392;28;20063;-68
2022/06/15 00:16:05;;;;;;;7.43;4.40;;;;;;;14.08;67.25;101882.38;5084461;28;19955;-66
2022/06/15 00:18:32;;;;;;;7.80;3.88;;;;;;;14.07;67.10;101875.50;5085798;28;20071;-66
2022/06/15 00:20:58;;;;;;;8.75;4.60;;;;;;;14.04;67.80;101880.94;5084659;28;20052;-67
2022/06/15 00:23:24;;;;;;;7.70;4.18;;;;;;;13.87;68.24;101878.84;5086055;28;20032;-67
2022/06/15 00:25:51;;;;;;;6.97;4.30;;;;;;;13.93;68.36;101875.75;5081386;28;20082;-67
2022/06/15 00:28:16;;;;;;;8.25;4.20;;;;;;;13.90;68.56;101876.00;5056868;28;20024;-67
2022/06/15 00:30:43;;;;;;;8.93;4.68;;;;;;;13.98;67.98;101884.03;5082724;28;20054;-67
2022/06/15 00:33:08;;;;;;;7.35;4.43;;;;;;;13.88;68.30;101888.31;5071787;28;20024;-67
2022/06/15 00:35:33;;;;;;;7.65;4.25;;;;;;;13.95;68.06;101886.91;5062465;28;20433;-67
2022/06/15 00:37:59;;;;;;;7.63;4.47;;;;;;;13.93;68.15;101886.16;5085044;28;20079;-67
2022/06/15 00:40:24;;;;;;;6.70;4.35;;;;;;;13.87;68.58;101879.66;5080232;28;20063;-67
2022/06/15 00:42:49;;;;;;;7.55;4.40;;;;;;;13.88;68.69;101872.66;5066062;28;20032;-67
2022/06/15 00:45:15;;;;;;;7.60;4.80;;;;;;;13.82;68.83;101874.84;5076177;28;20077;-67
2022/06/15 00:47:43;;;;;;;5.90;4.30;;;;;;;13.84;68.39;101871.25;5067332;28;20486;-67
2022/06/15 00:50:23;;;;;;;6.68;3.97;;;;;;;13.76;68.76;101880.53;5055342;28;20036;-67
2022/06/15 00:52:52;;;;;;;7.88;4.70;;;;;;;13.69;69.23;101871.50;5075694;28;20114;-67
2022/06/15 00:55:30;;;;;;;8.23;4.93;;;;;;;13.60;69.67;101885.28;5084079;28;20031;-68
2022/06/15 00:57:56;;;;;;;8.55;4.50;;;;;;;13.62;69.44;101878.16;5058238;28;20106;-66
2022/06/15 01:00:22;;;;;;;7.88;4.32;;;;;;;13.61;69.63;101876.50;5073455;28;20048;-68
2022/06/15 01:02:47;;;;;;;8.38;4.50;;;;;;;13.61;69.70;101855.66;5083653;28;20061;-66
2022/06/15 01:05:24;;;;;;;6.43;4.35;;;;;;;13.59;69.49;101877.53;5074143;28;20025;-66
2022/06/15 01:08:14;;;;;;;7.22;4.40;;;;;;;13.57;69.23;101869.84;5083653;28;20044;-67
2022/06/15 01:11:08;;;;;;;7.35;4.57;;;;;;;13.58;69.43;101865.47;5067066;28;20450;-67
2022/06/15 01:13:36;;;;;;;7.78;4.40;;;;;;;13.42;69.82;101858.00;5067056;28;20280;-66
2022/06/15 01:16:29;;;;;;;6.38;4.40;;;;;;;13.52;69.88;101861.56;5078429;28;20099;-68
2022/06/15 01:19:12;;;;;;;8.07;4.30;;;;;;;13.48;70.01;101865.38;5080016;28;20110;-66
2022/06/15 01:21:51;;;;;;;8.27;4.47;;;;;;;13.40;70.30;101867.72;5084031;28;20146;-66
2022/06/15 01:24:38;;;;;;;7.28;4.70;;;;;;;13.30;70.65;101872.81;5073497;28;20036;-67
2022/06/15 01:27:30;;;;;;;7.65;4.75;;;;;;;13.37;70.22;101862.75;5079496;28;20031;-66
2022/06/15 01:30:23;;;;;;;9.40;4.82;;;;;;;13.48;69.73;101860.16;5055876;28;20020;-66
2022/06/15 01:33:20;;;;;;;9.23;4.80;;;;;;;13.39;70.32;101863.47;5070518;28;20134;-66
2022/06/15 01:35:53;;;;;;;8.27;4.90;;;;;;;13.32;71.38;101862.28;5042137;28;20044;-67
2022/06/15 01:38:38;;;;;;;10.30;5.03;;;;;;;13.33;70.62;101866.53;5080297;28;20051;-67
2022/06/15 01:41:26;;;;;;;7.88;4.97;;;;;;;13.07;71.52;101850.25;5084839;28;20066;-67
2022/06/15 01:44:13;;;;;;;8.25;4.80;;;;;;;13.28;70.68;101865.09;5083815;28;20039;-67
2022/06/15 01:46:44;;;;;;;7.78;4.93;;;;;;;13.15;70.87;101853.13;5083321;28;20056;-66
2022/06/15 01:49:17;;;;;;;8.50;4.90;;;;;;;13.09;71.23;101854.41;5079966;28;20020;-66
2022/06/15 01:51:44;;;;;;;9.93;4.90;;;;;;;13.06;71.90;101854.63;5050822;28;20048;-66
2022/06/15 01:54:27;;;;;;;8.60;5.35;;;;;;;13.00;71.58;101850.72;5065801;28;20035;-67
2022/06/15 01:56:55;;;;;;;9.50;5.10;;;;;;;13.08;71.69;101847.53;5061744;28;20147;-66
2022/06/15 01:59:23;;;;;;;8.98;5.10;;;;;;;13.08;71.91;101841.50;5082875;28;20051;-66
2022/06/15 02:01:49;;;;;;;;;;;;;;;13.30;69.84;101841.53;5080776;28;20028;-69
2022/06/15 02:04:53;;;;;;;7.70;5.27;;;;;;;13.10;71.00;101840.44;5060945;28;20424;-66
2022/06/15 02:07:37;;;;;;;8.40;5.28;;;;;;;12.92;72.69;101847.03;5076196;28;20294;-66
2022/06/15 02:10:25;;;;;;;8.13;5.15;;;;;;;12.96;71.80;101827.63;5088389;28;20032;-66
2022/06/15 02:13:05;;;;;;;8.68;4.93;;;;;;;13.01;71.72;101841.13;5065927;28;20032;-66
2022/06/15 02:15:33;;;;;;;8.30;5.05;;;;;;;12.91;72.03;101832.38;5088444;28;20046;-69
2022/06/15 02:18:03;;;;;;;8.00;5.40;;;;;;;12.93;71.73;101830.47;5087632;28;20035;-66
2022/06/15 02:20:33;;;;;;;8.60;5.32;;;;;;;12.85;72.42;101830.22;5082595;28;20031;-69
2022/06/15 02:23:02;;;;;;;9.73;5.30;;;;;;;12.84;72.70;101829.38;5087610;28;20360;-66
2022/06/15 02:25:32;;;;;;;9.25;5.22;;;;;;;12.84;72.41;101828.53;5081238;28;20051;-66
2022/06/15 02:28:00;;;;;;;9.40;5.15;;;;;;;12.74;72.71;101833.63;5065874;28;20035;-68
2022/06/15 02:30:28;;;;;;;6.75;4.95;;;;;;;12.76;72.64;101827.34;5069652;28;20032;-66
2022/06/15 02:32:53;;;;;;;9.18;5.28;;;;;;;12.60;72.82;101826.00;5080408;28;20028;-66
2022/06/15 02:35:20;;;;;;;8.18;5.50;;;;;;;12.70;72.43;101817.41;5079033;28;20031;-67
2022/06/15 02:37:47;;;;;;;8.18;5.03;;;;;;;12.65;72.58;101829.91;5082879;28;20393;-67
2022/06/15 02:40:16;;;;;;;7.88;4.97;;;;;;;12.66;72.90;101830.75;5057713;28;20051;-70
2022/06/15 02:42:44;;;;;;;8.40;5.00;;;;;;;12.72;72.23;101820.69;5082046;28;20063;-66
2022/06/15 02:45:17;;;;;;;9.23;5.55;;;;;;;12.58;73.13;101833.94;5086557;28;20053;-66
2022/06/15 02:47:43;;;;;;;8.48;4.97;;;;;;;12.69;73.09;101830.53;5068509;28;20043;-66
2022/06/15 02:50:12;;;;;;;7.45;5.05;;;;;;;12.46;72.89;101808.81;5066029;28;20028;-69
2022/06/15 02:52:58;;;;;;;9.70;5.47;;;;;;;12.55;73.09;101818.53;5085797;28;20115;-66
2022/06/15 02:55:25;;;;;;;9.10;4.97;;;;;;;12.64;72.64;101823.06;5079443;28;20081;-66
2022/06/15 02:58:00;;;;;;;9.32;5.45;;;;;;;12.59;72.67;101813.94;5086814;28;20488;-69
2022/06/15 03:00:26;;;;;;;10.90;5.45;;;;;;;12.56;73.51;101815.00;5084161;28;20035;-67
2022/06/15 03:02:51;;;;;;;7.05;5.10;;;;;;;12.53;73.46;101809.19;5087687;28;20031;-66
2022/06/15 03:05:17;;;;;;;10.98;5.32;;;;;;;12.48;73.81;101814.72;5075329;28;20608;-67
2022/06/15 03:07:42;;;;;;;9.43;5.28;;;;;;;12.45;73.56;101814.97;5087118;28;20028;-66
2022/06/15 03:10:08;;;;;;;7.15;5.38;;;;;;;12.49;73.47;101813.78;5063383;28;20067;-66
2022/06/15 03:12:33;;;;;;;9.90;5.45;;;;;;;12.46;73.52;101808.81;5085781;28;20019;-67
2022/06/15 03:14:59;;;;;;;9.02;5.60;;;;;;;12.31;74.65;101815.13;5088252;28;20069;-66
2022/06/15 03:17:24;;;;;;;9.27;5.28;;;;;;;12.49;73.91;101818.97;5084927;28;20102;-66
2022/06/15 03:19:50;;;;;;;9.57;5.43;;;;;;;12.33;74.25;101803.69;5086190;28;20092;-66
2022/06/15 03:22:15;;;;;;;9.23;5.50;;;;;;;12.36;73.84;101816.47;5079314;28;20483;-67
2022/06/15 03:24:41;;;;;;;8.90;5.78;;;;;;;12.39;73.89;101808.44;5064152;28;20036;-67
2022/06/15 03:27:06;;;;;;;8.43;5.32;;;;;;;12.38;74.39;101806.75;5078725;28;20073;-66
2022/06/15 03:29:31;;;;;;;9.15;5.50;;;;;;;12.35;74.39;101803.56;5083636;28;20036;-66
2022/06/15 03:31:57;;;;;;;10.98;5.90;;;;;;;12.28;74.42;101799.78;5084158;28;20051;-66
2022/06/15 03:34:22;;;;;;;7.82;5.53;;;;;;;12.29;73.96;101811.81;5081080;28;20384;-68
2022/06/15 03:36:48;;;;;;;8.85;5.65;;;;;;;12.34;74.12;101809.72;5068621;28;20036;-67
2022/06/15 03:39:13;;;;;;;9.85;5.85;;;;;;;12.37;74.58;101814.69;5082910;28;20034;-68
2022/06/15 03:41:38;;;;;;;8.20;5.25;;;;;;;12.20;74.53;101814.13;5076427;28;20407;-66
2022/06/15 03:44:04;;;;;;;8.45;5.68;;;;;;;12.20;74.09;101811.53;5086175;28;20394;-67
2022/06/15 03:46:30;;;;;;;8.02;5.55;;;;;;;12.16;74.46;101802.31;5083696;28;20036;-66
2022/06/15 03:48:55;;;;;;;8.52;5.40;;;;;;;12.24;74.05;101814.75;5064820;28;20496;-66
2022/06/15 03:51:21;;;;;;;10.55;5.60;;;;;;;12.15;74.20;101799.81;5078963;28;20571;-67
2022/06/15 03:53:46;;;;;;;9.02;5.78;;;;;;;12.17;74.94;101819.56;5080230;28;20058;-67
2022/06/15 03:56:11;;;;;;;9.48;5.45;;;;;;;12.22;74.57;101812.28;5082907;28;20095;-66
2022/06/15 03:58:37;;;;;;;7.13;5.68;;;;;;;12.30;74.12;101813.47;5082879;28;20054;-66
2022/06/15 04:01:02;;;;;;;9.57;5.82;;;;;;;12.23;74.67;101818.31;5066337;28;20051;-66
2022/06/15 04:03:28;;;;;;;8.73;5.68;;;;;;;12.27;74.13;101818.91;5077340;28;20036;-67
2022/06/15 04:05:55;;;;;;;10.98;5.90;;;;;;;12.27;74.15;101813.69;5081238;28;20476;-66
2022/06/15 04:08:34;;;;;;;9.35;6.00;;;;;;;12.31;74.74;101815.13;5083278;28;20020;-69
2022/06/15 04:11:04;;;;;;;11.55;5.85;;;;;;;12.25;74.36;101805.19;5078862;28;20024;-66
2022/06/15 04:13:29;;;;;;;9.77;5.53;;;;;;;12.31;74.45;101810.75;5082302;28;20032;-67
2022/06/15 04:15:55;;;;;;;10.82;6.00;;;;;;;12.32;74.18;101811.59;5082083;28;20483;-66
2022/06/15 04:18:21;;;;;;;9.52;5.75;;;;;;;12.38;73.90;101821.53;5077061;28;20100;-66
2022/06/15 04:20:46;;;;;;;9.13;5.88;;;;;;;12.39;74.36;101820.63;5082758;28;20028;-68
2022/06/15 04:23:41;;;;;;;10.43;5.78;;;;;;;12.50;73.47;101825.84;5074250;28;20020;-71
2022/06/15 04:26:09;;;;;;;9.95;5.90;;;;;;;12.30;74.22;101818.69;5070932;28;20079;-67
2022/06/15 04:28:53;;;;;;;9.63;6.10;;;;;;;12.48;73.90;101819.94;5080577;28;20020;-67
2022/06/15 04:31:18;;;;;;;9.45;5.85;;;;;;;12.53;73.23;101824.81;5078348;28;20046;-67
2022/06/15 04:33:44;;;;;;;15.50;6.40;;;;;;;12.55;74.01;101818.53;5082273;28;20031;-66
2022/06/15 04:36:13;;;;;;;10.38;6.35;;;;;;;12.56;73.45;101820.22;5080980;28;20129;-66
2022/06/15 04:38:38;;;;;;;9.68;6.40;;;;;;;12.60;73.87;101816.41;5083675;28;20031;-68
2022/06/15 04:41:03;;;;;;;9.82;6.55;;;;;;;12.58;73.80;101818.31;5074764;28;20035;-66
2022/06/15 04:43:29;;;;;;;10.25;6.90;;;;;;;12.55;74.43;101813.31;5084155;28;20035;-66
2022/06/15 04:45:55;;;;;;;10.75;6.80;;;;;;;12.69;73.82;101820.94;5073881;28;20510;-66
2022/06/15 04:48:20;;;;;;;11.32;6.38;;;;;;;12.69;74.14;101818.34;5078788;28;20476;-66
2022/06/15 04:50:46;;;;;;;10.45;7.28;;;;;;;12.60;73.66;101800.81;5020830;28;1119544;-68
2022/06/15 04:53:12;;;;;;;10.15;6.82;;;;;;;12.71;74.04;101819.06;5079013;28;20031;-66
2022/06/15 04:55:37;;;;;;;10.95;7.20;;;;;;;12.71;74.80;101821.66;5083300;28;20069;-67
2022/06/15 04:58:04;;;;;;;10.38;7.10;;;;;;;12.78;74.37;101819.41;5080897;28;20024;-69
2022/06/15 05:00:34;;;;;;;9.70;7.10;;;;;;;12.76;74.46;101829.94;5081135;28;20023;-70
2022/06/15 05:03:00;;;;;;;10.07;7.20;;;;;;;12.91;72.92;101829.75;5084767;28;20024;-69
2022/06/15 05:05:26;;;;;;;9.85;7.32;;;;;;;12.89;73.49;101826.44;5069224;28;20059;-67
2022/06/15 05:07:52;;;;;;;10.55;7.28;;;;;;;12.92;73.90;101826.22;5079414;28;20078;-66
2022/06/15 05:10:23;;;;;;;12.95;7.70;;;;;;;12.92;73.71;101832.25;5079686;28;20539;-66
2022/06/15 05:12:49;;;;;;;11.35;7.88;;;;;;;12.96;73.49;101825.00;5083484;28;20062;-67
2022/06/15 05:15:16;;;;;;;11.98;7.10;;;;;;;13.07;73.50;101830.22;5082545;28;20028;-66
2022/06/15 05:17:42;;;;;;;10.45;7.50;;;;;;;13.17;72.59;101833.81;5084077;28;20023;-69
2022/06/15 05:20:10;;;;;;;10.07;7.47;;;;;;;13.09;73.98;101823.16;5084686;28;20036;-66
2022/06/15 05:22:37;;;;;;;10.18;7.50;;;;;;;13.14;73.32;101818.44;5079910;28;20066;-66
2022/06/15 05:25:07;;;;;;;10.10;8.05;;;;;;;13.23;73.37;101825.53;5058783;28;20031;-66
2022/06/15 05:27:33;;;;;;;11.75;7.53;;;;;;;13.24;74.03;101822.00;5076922;28;20036;-67
2022/06/15 05:29:59;;;;;;;11.48;7.70;;;;;;;13.36;73.44;101816.78;5082949;28;20506;-66
2022/06/15 05:32:24;;;;;;;11.95;7.63;;;;;;;13.42;73.63;101818.91;5079830;28;20033;-66
2022/06/15 05:34:50;;;;;;;12.52;7.03;;;;;;;13.42;73.44;101824.97;5082636;28;20422;-70
2022/06/15 05:37:15;;;;;;;10.15;7.07;;;;;;;13.43;73.61;101804.97;5083514;28;20016;-66
2022/06/15 05:39:41;;;;;;;12.65;7.70;;;;;;;13.54;73.01;101812.75;5083613;28;20027;-67
2022/06/15 05:42:06;;;;;;;13.07;7.13;;;;;;;13.64;72.59;101824.09;5064397;28;20112;-66
2022/06/15 05:47:00;;;;;;;10.57;6.57;;;;;;;13.74;72.44;101825.03;5084374;28;20489;-66
2022/06/15 05:49:27;;;;;;;12.30;6.57;;;;;;;13.87;71.73;101832.72;5080961;28;20376;-68
2022/06/15 05:51:53;;;;;;;13.32;6.63;;;;;;;13.95;72.18;101821.69;5084377;28;20130;-67
2022/06/15 05:54:18;;;;;;;10.00;6.40;;;;;;;13.97;71.57;101819.78;5085776;28;20457;-66
2022/06/15 05:56:44;;;;;;;9.25;6.00;;;;;;;14.13;71.12;101825.44;5083184;28;20043;-68
2022/06/15 05:59:10;;;;;;;10.23;5.80;;;;;;;14.24;70.61;101828.00;5088700;28;20024;-66
2022/06/15 06:01:37;;;;;;;13.63;6.15;;;;;;;14.33;70.14;101822.00;5085218;28;20024;-66
2022/06/15 06:04:04;;;;;;;11.30;6.33;;;;;;;14.40;70.30;101824.16;5084632;28;20050;-67
2022/06/15 06:06:31;;;;;;;9.77;5.85;;;;;;;14.47;71.39;101828.75;5087507;28;20322;-67
2022/06/15 06:08:57;;;;;;;10.00;6.00;;;;;;;14.65;70.11;101830.81;5086917;28;20035;-66
2022/06/15 06:11:23;;;;;;;9.70;5.85;;;;;;;14.72;70.08;101827.56;5085643;28;20032;-70
2022/06/15 06:13:49;;;;;;;10.48;5.97;;;;;;;14.76;69.46;101826.34;5064067;28;20699;-69
2022/06/15 06:16:14;;;;;;;12.50;6.00;;;;;;;14.90;69.59;101826.97;5087602;28;20460;-66
2022/06/15 06:18:40;;;;;;;10.90;5.88;;;;;;;14.98;70.34;101821.94;5083058;28;20042;-66
2022/06/15 06:21:06;;;;;;;10.65;6.07;;;;;;;15.18;68.96;101828.09;5066767;28;20034;-66
2022/06/15 06:23:33;;;;;;;9.05;5.63;;;;;;;15.13;68.36;101815.41;5087946;28;20122;-68
2022/06/15 06:25:59;;;;;;;10.43;5.72;;;;;;;15.24;68.49;101823.16;5082108;28;20111;-67
2022/06/15 06:28:27;;;;;;;8.80;5.70;;;;;;;15.32;68.19;101830.38;5086280;28;20155;-66
2022/06/15 06:30:53;;;;;;;8.82;5.45;;;;;;;15.44;68.32;101821.47;5076071;28;20029;-67
2022/06/15 06:33:19;;;;;;;11.48;5.82;;;;;;;15.51;67.74;101824.38;5082710;28;20027;-67
2022/06/15 06:35:45;;;;;;;8.88;5.72;;;;;;;15.66;67.80;101823.09;5087402;28;20032;-71
2022/06/15 06:38:12;;;;;;;9.50;5.80;;;;;;;15.62;68.46;101826.88;5086555;28;20075;-67
2022/06/15 06:40:38;;;;;;;9.00;5.43;;;;;;;15.75;66.31;101832.72;5084437;28;20028;-66
2022/06/15 06:43:04;;;;;;;9.73;5.72;;;;;;;15.89;66.22;101831.53;5085545;28;20039;-67
2022/06/15 06:45:29;;;;;;;8.35;4.82;;;;;;;15.95;66.31;101823.13;5085119;28;20085;-67
2022/06/15 06:47:56;;;;;;;8.88;5.35;;;;;;;16.03;66.16;101830.31;5085893;28;20540;-71
2022/06/15 06:50:22;;;;;;;11.05;5.63;;;;;;;16.10;65.20;101826.16;5083358;28;20032;-67
2022/06/15 06:52:48;;;;;;;13.88;5.80;;;;;;;16.15;64.68;101829.19;5083879;28;20071;-67
2022/06/15 06:55:13;;;;;;;10.30;5.47;;;;;;;16.25;65.71;101840.50;5084038;28;20063;-71
2022/06/15 06:57:39;;;;;;;7.95;4.72;;;;;;;16.45;64.94;101841.31;5088211;28;20472;-66
2022/06/15 07:00:05;;;;;;;10.57;5.35;;;;;;;16.52;65.12;101841.63;5076464;28;20139;-66
2022/06/15 07:02:30;;;;;;;9.68;4.90;;;;;;;16.60;64.20;101849.59;5084647;28;20509;-66
2022/06/15 07:04:55;;;;;;;10.73;5.55;;;;;;;16.70;63.74;101856.50;5074451;28;20033;-67
2022/06/15 07:07:21;;;;;;;9.82;4.85;;;;;;;16.82;63.39;101849.31;5079630;28;20456;-67
2022/06/15 07:09:46;;;;;;;8.65;4.40;;;;;;;16.91;63.25;101853.69;5080302;28;20684;-66
2022/06/15 07:12:11;;;;;;;8.35;4.47;;;;;;;16.94;62.25;101856.06;5081861;28;20448;-69
2022/06/15 07:14:37;;;;;;;10.38;4.80;;;;;;;17.07;62.09;101853.13;5086533;28;20500;-66
2022/06/15 07:17:02;;;;;;;9.82;4.47;;;;;;;17.14;63.29;101856.00;5086911;28;20125;-67
2022/06/15 07:19:28;;;;;;;7.55;4.38;;;;;;;17.27;62.55;101859.13;5066907;28;20046;-67
2022/06/15 07:21:53;;;;;;;10.32;4.68;;;;;;;17.25;60.73;101861.06;5079550;28;20471;-68
2022/06/15 07:24:18;;;;;;;9.93;4.22;;;;;;;17.39;60.83;101852.75;5084338;28;20043;-67
2022/06/15 07:26:47;;;;;;;9.65;3.95;;;;;;;17.43;60.03;101864.59;5072618;28;20050;-67
2022/06/15 07:29:16;;;;;;;7.93;4.00;;;;;;;17.45;60.11;101857.41;5079491;28;20031;-67
2022/06/15 07:31:46;;;;;;;9.15;4.22;;;;;;;17.59;60.02;101869.19;5079666;28;20089;-67
2022/06/15 07:34:12;;;;;;;8.23;4.28;;;;;;;17.69;59.43;101869.16;5081943;28;20525;-72
2022/06/15 07:36:46;;;;;;;8.98;4.10;;;;;;;17.76;59.70;101865.84;5080812;28;20036;-66
2022/06/15 07:39:11;;;;;;;9.40;3.83;;;;;;;17.80;58.74;101866.38;5077427;28;20024;-67
2022/06/15 07:41:36;;;;;;;7.60;4.15;;;;;;;17.94;59.56;101863.25;5079140;28;20065;-66
2022/06/15 07:44:02;;;;;;;9.68;4.05;;;;;;;17.97;60.44;101868.19;5081505;28;20384;-67
2022/06/15 07:46:28;;;;;;;7.93;4.53;;;;;;;18.12;59.64;101865.91;5081517;28;20122;-67
2022/06/15 07:51:46;;;;;;;8.18;4.13;;;;;;;18.27;57.72;101874.91;5082500;28;20519;-66
2022/06/15 07:54:14;;;;;;;8.63;3.85;;;;;;;18.43;57.26;101863.72;5086303;28;20036;-66
2022/06/15 07:56:41;;;;;;;9.65;4.30;;;;;;;18.50;56.83;101870.00;5084618;28;20020;-70
2022/06/15 07:59:06;;;;;;;7.75;3.58;;;;;;;18.71;57.19;101855.75;5086523;28;20023;-67
2022/06/15 08:01:32;;;;;;;8.38;3.20;;;;;;;18.71;55.89;101858.41;5081737;28;20460;-70
2022/06/15 08:03:58;;;;;;;7.53;2.90;;;;;;;18.68;53.19;101856.06;5084278;28;20050;-67
2022/06/15 08:06:24;;;;;;;11.30;3.42;;;;;;;18.78;53.99;101864.69;5073935;28;20055;-69
2022/06/15 08:08:49;;;;;;;6.50;2.97;;;;;;;18.83;53.02;101860.63;5079720;28;20476;-67
2022/06/15 08:11:15;;;;;;;7.38;3.08;;;;;;;19.01;54.66;101863.19;5081732;28;20555;-68
2022/06/15 08:13:41;;;;;;;8.93;3.20;;;;;;;18.97;52.46;101872.34;5082653;28;20476;-67
2022/06/15 08:16:07;;;;;;;10.25;3.22;;;;;;;19.01;51.35;101868.44;5080701;28;20024;-71
2022/06/15 08:18:40;;;;;;;7.80;2.90;;;;;;;19.04;52.98;101862.06;5076145;28;20039;-67
2022/06/15 08:21:33;;;;;;;7.90;2.72;;;;;;;19.28;53.84;101861.38;5079038;28;20050;-68
2022/06/15 08:23:59;;;;;;;7.68;2.53;;;;;;;19.22;52.04;101865.47;5075309;28;20799;-70
2022/06/15 08:26:34;;;;;;;9.60;2.80;;;;;;;19.36;53.02;101866.66;5078085;28;20040;-66
2022/06/15 08:29:04;;;;;;;5.65;2.80;;;;;;;19.30;51.33;101857.59;5081612;28;20380;-68
2022/06/15 08:31:32;;;;;;;7.95;3.10;;;;;;;19.46;53.65;101856.84;5078012;28;20038;-67
2022/06/15 08:33:57;;;;;;;;;;;;;;;19.66;54.87;101861.88;5081790;28;20032;-68
2022/06/15 08:36:23;;;;;;;10.17;2.90;;;;;;;19.76;51.73;101862.56;5075472;28;19920;-66
2022/06/15 08:38:48;;;;;;;8.05;2.83;;;;;;;19.82;51.10;101840.88;5081642;28;20285;-68
2022/06/15 08:41:28;;;;;;;8.68;2.90;;;;;;;19.93;51.83;101848.47;5077861;28;20474;-67
2022/06/15 08:44:19;;;;;;;8.85;2.80;;;;;;;20.05;51.56;101847.16;5081041;28;20036;-68
2022/06/15 08:47:03;;;;;;;6.93;2.80;;;;;;;20.15;51.78;101855.75;5061153;28;20036;-70
2022/06/15 08:49:41;;;;;;;7.93;3.00;;;;;;;20.17;50.56;101851.13;5076827;28;20472;-67
2022/06/15 08:52:15;;;;;;;8.93;3.00;;;;;;;20.17;49.68;101845.88;5068941;28;20044;-67
2022/06/15 08:54:52;;;;;;;8.10;2.88;;;;;;;20.31;50.87;101846.22;5069688;28;20046;-68
2022/06/15 08:57:31;;;;;;;6.93;2.72;;;;;;;20.49;48.86;101849.53;5076326;28;20020;-67
2022/06/15 09:00:14;;;;;;;7.95;2.53;;;;;;;20.53;49.12;101856.13;5082711;28;20468;-67
2022/06/15 09:02:44;;;;;;;6.70;2.58;;;;;;;20.72;49.83;101859.41;5081908;28;20101;-68
2022/06/15 09:05:22;;;;;;;8.23;2.85;;;;;;;20.71;48.31;101848.06;5082231;28;20036;-68
2022/06/15 09:07:57;;;;;;;7.03;2.60;;;;;;;20.75;48.17;101859.06;5063330;28;20032;-69
2022/06/15 09:10:37;;;;;;;8.02;2.80;;;;;;;20.80;47.61;101856.75;5078473;28;20036;-67
2022/06/15 09:13:22;;;;;;;6.70;2.42;;;;;;;20.99;48.68;101856.41;5083648;28;20474;-67
2022/06/15 09:15:48;;;;;;;7.65;2.53;;;;;;;21.08;48.11;101859.84;5077544;28;20048;-67
2022/06/15 09:18:26;;;;;;;6.30;2.67;;;;;;;20.84;45.99;101847.53;5060249;28;20054;-69
2022/06/15 09:21:00;;;;;;;9.27;3.20;;;;;;;21.14;47.19;101854.69;5077907;28;20285;-68
2022/06/15 09:23:29;;;;;;;6.50;2.70;;;;;;;21.32;47.32;101857.16;5080612;28;20032;-67
2022/06/15 09:26:01;;;;;;;7.50;2.78;;;;;;;21.36;45.67;101855.00;5078471;28;20042;-67
2022/06/15 09:28:34;;;;;;;6.72;2.72;;;;;;;21.44;47.50;101861.06;5078588;28;20036;-67
2022/06/15 09:31:10;;;;;;;8.20;2.97;;;;;;;21.47;48.36;101857.25;5076994;28;20020;-68
2022/06/15 09:33:47;;;;;;;8.38;2.80;;;;;;;21.51;46.64;101861.22;5078604;28;20372;-67
2022/06/15 09:36:20;;;;;;;8.43;2.70;;;;;;;21.44;45.59;101849.69;5077753;28;20044;-68
2022/06/15 09:38:45;;;;;;;6.32;2.58;;;;;;;21.46;44.93;101848.53;5077096;28;20035;-67
2022/06/15 09:41:20;;;;;;;7.53;2.50;;;;;;;21.42;45.97;101856.94;5073539;28;20051;-67
2022/06/15 09:44:30;;;;;;;7.60;2.78;;;;;;;21.57;45.64;101849.16;5084288;28;20066;-67
2022/06/15 09:47:29;;;;;;;5.75;2.50;;;;;;;21.69;46.61;101848.59;5063919;28;20032;-67
2022/06/15 09:50:26;;;;;;;6.40;2.38;;;;;;;21.66;44.92;101853.38;5080422;28;20055;-67
2022/06/15 09:53:08;;;;;;;6.38;2.33;;;;;;;21.85;45.36;101850.31;5070966;28;20113;-70
2022/06/15 09:55:36;;;;;;;6.45;2.70;;;;;;;21.83;42.73;101847.00;5080625;28;20067;-67
2022/06/15 09:58:05;;;;;;;5.53;2.40;;;;;;;21.84;43.07;101839.91;5084497;28;20523;-72
2022/06/15 10:00:31;;;;;;;7.03;2.65;;;;;;;21.98;42.76;101847.09;5083824;28;20066;-68
2022/06/15 10:03:00;;;;;;;7.22;2.50;;;;;;;22.15;45.22;101848.66;5066657;28;20062;-68
2022/06/15 10:05:31;;;;;;;6.53;2.58;;;;;;;22.04;43.04;101845.56;5072243;28;20379;-68
2022/06/15 10:08:00;;;;;;;6.25;2.50;;;;;;;22.00;42.95;101834.53;5076844;28;20028;-67
2022/06/15 10:10:31;;;;;;;6.65;2.30;;;;;;;22.29;45.48;101839.13;5077356;28;20036;-70
2022/06/15 10:13:23;;;;;;;7.82;2.40;;;;;;;22.45;43.78;101831.06;5054764;28;20111;-67
2022/06/15 10:15:54;;;;;;;7.70;3.00;;;;;;;22.34;43.81;101825.38;5079436;28;20020;-67
2022/06/15 10:18:42;;;;;;;5.50;2.25;;;;;;;22.54;43.16;101837.13;5077593;28;20036;-68
2022/06/15 10:21:13;;;;;;;6.53;2.67;;;;;;;22.42;43.95;101833.22;5076385;28;20020;-67
2022/06/15 10:23:59;;;;;;;6.15;2.63;;;;;;;22.56;44.46;101829.81;5078529;28;20050;-68
2022/06/15 10:26:33;;;;;;;8.48;2.92;;;;;;;22.58;42.92;101826.97;5073577;28;20036;-68
2022/06/15 10:29:22;;;;;;;7.15;2.75;;;;;;;22.50;42.70;101830.53;5084472;28;20468;-68
2022/06/15 10:32:08;;;;;;;6.38;2.50;;;;;;;22.73;43.01;101831.28;5083216;28;20085;-69
2022/06/15 10:34:45;;;;;;;6.20;2.85;;;;;;;22.75;42.45;101823.16;5082619;28;20043;-67
2022/06/15 10:37:31;;;;;;;7.93;2.73;;;;;;;22.85;43.04;101829.03;5087977;28;20028;-67
2022/06/15 10:40:01;;;;;;;5.53;2.38;;;;;;;22.82;42.35;101828.56;5084577;28;20020;-71
2022/06/15 10:42:38;;;;;;;8.20;3.10;;;;;;;22.91;41.48;101828.31;5067638;28;20035;-68
2022/06/15 10:45:23;;;;;;;5.85;2.60;;;;;;;22.66;41.35;101830.38;5078070;28;20032;-69
2022/06/15 10:47:58;;;;;;;5.50;2.42;;;;;;;22.70;39.66;101826.34;5084513;28;20036;-70
2022/06/15 10:50:37;;;;;;;7.18;2.90;;;;;;;22.69;40.43;101824.72;5061974;28;20147;-67
2022/06/15 10:53:05;;;;;;;8.82;2.60;;;;;;;22.87;43.09;101823.53;5084446;28;20148;-68
2022/06/15 11:04:24;;;;;;;7.05;2.75;;;;;;;23.04;39.17;101825.03;5073356;28;20048;-67
2022/06/15 11:06:58;;;;;;;7.25;2.55;;;;;;;23.21;39.28;101818.53;5079063;28;20032;-67
2022/06/15 11:09:29;;;;;;;5.75;2.70;;;;;;;23.28;41.80;101819.47;5083869;28;20028;-68
2022/06/15 11:11:57;;;;;;;5.30;2.70;;;;;;;23.04;37.83;101819.75;5079528;28;20038;-68
2022/06/15 11:14:31;;;;;;;7.55;2.80;;;;;;;23.05;39.23;101824.03;5083575;28;20086;-69
2022/06/15 11:20:05;;;;;;;10.05;3.20;;;;;;;23.47;41.57;101819.91;5075774;28;20071;-67
2022/06/15 11:22:33;;;;;;;8.15;3.13;;;;;;;23.39;39.12;101804.09;5080763;28;20452;-68
2022/06/15 11:25:01;;;;;;;7.57;2.80;;;;;;;23.63;40.60;101811.75;5066233;28;20031;-67
2022/06/15 11:27:36;;;;;;;7.47;2.90;;;;;;;23.44;40.03;101804.38;5083000;28;20090;-68
2022/06/15 11:30:25;;;;;;;6.45;3.15;;;;;;;23.53;39.08;101817.31;5068314;28;20495;-69
2022/06/15 11:33:20;;;;;;;7.45;2.88;;;;;;;23.50;40.67;101801.78;5081875;28;20035;-68
2022/06/15 11:36:09;;;;;;;7.20;2.60;;;;;;;23.75;43.06;101806.78;5082438;28;20052;-68
2022/06/15 11:38:40;;;;;;;5.95;2.45;;;;;;;23.82;39.07;101805.84;5079130;28;20028;-68
2022/06/15 11:41:44;;;;;;;5.70;2.40;;;;;;;23.93;40.66;101809.00;5084876;28;20043;-67
2022/06/15 11:44:23;;;;;;;5.55;2.45;;;;;;;23.68;40.52;101809.34;5023831;28;20036;-71
2022/06/15 11:47:02;;;;;;;8.43;2.40;;;;;;;23.76;39.89;101806.59;5077385;28;20081;-68
2022/06/15 11:49:53;;;;;;;7.95;2.60;;;;;;;23.80;38.59;101810.50;5082954;28;20035;-68
2022/06/15 11:52:18;;;;;;;6.28;2.65;;;;;;;23.81;38.87;101806.84;5074525;28;20169;-68
2022/06/15 11:55:13;;;;;;;6.63;2.47;;;;;;;23.74;38.63;101813.06;5083075;28;20485;-67
2022/06/15 11:57:50;;;;;;;5.32;2.20;;;;;;;23.84;39.68;101803.00;5085368;28;20341;-68
2022/06/15 12:00:21;;;;;;;4.93;2.30;;;;;;;23.76;37.40;101798.66;5081415;28;20040;-69